createdAt,value
2023-03-31T00:01:05.112Z,2.75
2023-03-31T00:06:03.966Z,2.85
2023-03-31T00:11:02.933Z,3.25
2023-03-31T00:16:04.480Z,3.03
2023-03-31T00:21:08.385Z,2.88
2023-03-31T00:26:07.153Z,2.83
2023-03-31T00:31:06.915Z,2.60
2023-03-31T00:36:06.731Z,2.75
2023-03-31T00:41:06.613Z,3.10
2023-03-31T00:46:09.103Z,2.50
2023-03-31T00:51:08.418Z,2.85
2023-03-31T00:56:08.395Z,3.65
2023-03-31T01:01:08.426Z,2.50
2023-03-31T01:06:10.414Z,2.97
2023-03-31T01:11:10.695Z,2.60
2023-03-31T01:16:10.245Z,3.20
2023-03-31T01:21:19.770Z,3.70
2023-03-31T01:26:38.966Z,2.80
2023-03-31T01:31:58.681Z,2.67
2023-03-31T01:37:17.318Z,2.20
2023-03-31T01:42:19.790Z,3.13
2023-03-31T01:47:23.149Z,3.08
2023-03-31T01:52:24.858Z,3.08
2023-03-31T01:57:27.601Z,3.05
2023-03-31T02:02:29.536Z,2.90
2023-03-31T02:07:30.027Z,2.97
2023-03-31T02:12:32.529Z,3.80
2023-03-31T02:17:32.857Z,3.10
2023-03-31T02:22:32.760Z,3.10
2023-03-31T02:27:34.450Z,3.17
2023-03-31T02:32:35.340Z,2.70
2023-03-31T02:37:33.905Z,2.85
2023-03-31T02:42:33.508Z,4.70
2023-03-31T02:47:31.800Z,3.67
2023-03-31T02:52:45.463Z,2.85
2023-03-31T02:58:07.553Z,3.15
2023-03-31T03:03:15.407Z,2.75
2023-03-31T03:08:19.293Z,3.78
2023-03-31T03:13:19.238Z,2.95
2023-03-31T03:18:18.888Z,3.60
2023-03-31T03:23:17.010Z,4.00
2023-03-31T03:28:15.135Z,3.03
2023-03-31T03:33:17.248Z,2.95
2023-03-31T03:38:17.892Z,3.60
2023-03-31T03:43:16.036Z,3.30
2023-03-31T03:48:14.378Z,3.35
2023-03-31T03:53:12.490Z,4.88
2023-03-31T03:58:12.434Z,7.43
2023-03-31T04:03:10.698Z,3.50
2023-03-31T04:08:08.976Z,8.45
2023-03-31T04:13:07.154Z,9.38
2023-03-31T04:18:06.847Z,4.78
2023-03-31T04:23:05.788Z,5.00
2023-03-31T04:28:06.798Z,3.60
2023-03-31T04:33:06.715Z,4.40
2023-03-31T04:38:04.932Z,4.35
2023-03-31T04:43:03.088Z,4.70
2023-03-31T04:48:01.293Z,5.75
2023-03-31T04:53:01.026Z,6.45
2023-03-31T04:57:59.176Z,5.78
2023-03-31T05:02:58.552Z,5.05
2023-03-31T05:07:56.771Z,5.13
2023-03-31T05:12:56.277Z,4.93
2023-03-31T05:17:54.650Z,4.53
2023-03-31T05:22:52.882Z,5.72
2023-03-31T05:27:51.190Z,5.30
2023-03-31T05:32:51.038Z,7.18
2023-03-31T05:37:49.184Z,21.15
2023-03-31T05:42:47.353Z,9.00
2023-03-31T05:47:45.544Z,8.57
2023-03-31T05:52:45.239Z,7.22
2023-03-31T05:57:43.479Z,8.20
2023-03-31T06:02:42.701Z,9.75
2023-03-31T06:07:41.194Z,7.93
2023-03-31T06:12:40.842Z,8.95
2023-03-31T06:17:39.233Z,17.23
2023-03-31T06:22:37.501Z,11.73
2023-03-31T06:27:35.613Z,9.80
2023-03-31T06:32:35.176Z,10.25
2023-03-31T06:37:33.374Z,9.93
2023-03-31T06:42:31.528Z,8.95
2023-03-31T06:47:29.713Z,12.45
2023-03-31T06:52:29.325Z,13.13
2023-03-31T06:57:27.556Z,11.07
2023-03-31T07:02:26.045Z,11.27
2023-03-31T07:07:24.264Z,7.75
2023-03-31T07:12:23.790Z,7.07
2023-03-31T07:17:21.916Z,7.15
2023-03-31T07:22:20.162Z,7.38
2023-03-31T07:27:18.295Z,6.75
2023-03-31T07:32:17.875Z,5.40
2023-03-31T07:37:16.215Z,6.43
2023-03-31T07:42:14.355Z,7.18
2023-03-31T07:47:12.602Z,7.00
2023-03-31T07:52:12.090Z,6.28
2023-03-31T07:57:10.238Z,6.20
2023-03-31T08:02:08.473Z,7.15
2023-03-31T08:07:06.702Z,7.53
2023-03-31T08:12:06.567Z,9.55
2023-03-31T08:17:04.782Z,12.23
2023-03-31T08:22:02.921Z,6.53
2023-03-31T08:27:01.086Z,6.35
2023-03-31T08:32:00.884Z,8.60
2023-03-31T08:36:59.155Z,9.65
2023-03-31T08:41:59.450Z,11.40
2023-03-31T08:46:58.748Z,10.20
2023-03-31T08:51:59.520Z,8.48
2023-03-31T08:56:57.800Z,6.00
2023-03-31T09:01:59.941Z,7.75
2023-03-31T09:07:04.480Z,5.30
2023-03-31T09:12:07.651Z,4.70
2023-03-31T09:17:14.283Z,7.43
2023-03-31T09:22:15.449Z,5.38
2023-03-31T09:27:13.610Z,6.55
2023-03-31T09:32:15.828Z,6.75
2023-03-31T09:37:15.504Z,4.50
2023-03-31T09:42:14.527Z,5.15
2023-03-31T09:47:14.628Z,5.18
2023-03-31T09:52:15.510Z,4.72
2023-03-31T09:57:16.629Z,5.07
2023-03-31T10:02:23.496Z,5.68
2023-03-31T10:07:22.311Z,5.25
2023-03-31T10:12:24.395Z,5.95
2023-03-31T10:17:23.204Z,7.25
2023-03-31T10:22:28.825Z,7.43
2023-03-31T10:27:29.460Z,7.57
2023-03-31T10:32:29.541Z,11.82
2023-03-31T10:37:29.481Z,8.68
2023-03-31T10:42:29.367Z,10.02
2023-03-31T10:47:27.600Z,9.60
2023-03-31T10:52:27.283Z,9.90
2023-03-31T10:57:30.890Z,8.30
2023-03-31T11:02:43.972Z,9.20
2023-03-31T11:07:49.072Z,7.03
2023-03-31T11:12:51.956Z,8.50
2023-03-31T11:18:00.139Z,6.43
2023-03-31T11:23:01.988Z,5.80
2023-03-31T11:28:06.972Z,7.18
2023-03-31T11:33:15.272Z,5.97
2023-03-31T11:38:20.348Z,4.22
2023-03-31T11:43:25.806Z,9.38
2023-03-31T11:48:29.777Z,5.50
2023-03-31T11:53:29.731Z,3.77
2023-03-31T11:58:31.266Z,6.50
2023-03-31T12:03:35.043Z,4.90
2023-03-31T12:08:36.618Z,3.47
2023-03-31T12:13:41.360Z,2.58
2023-03-31T12:23:40.537Z,5.88
2023-03-31T12:28:40.674Z,2.78
2023-03-31T12:33:40.826Z,2.55
2023-03-31T12:38:47.717Z,3.25
2023-03-31T12:43:55.869Z,2.40
2023-03-31T12:49:00.285Z,2.75
2023-03-31T12:54:06.801Z,3.67
2023-03-31T12:59:19.206Z,3.58
2023-03-31T13:04:21.260Z,2.78
2023-03-31T13:09:40.559Z,2.60
2023-03-31T13:14:41.876Z,3.25
2023-03-31T13:19:41.910Z,2.85
2023-03-31T13:24:40.608Z,2.33
2023-03-31T13:29:43.522Z,3.60
2023-03-31T13:34:43.549Z,4.03
2023-03-31T13:39:50.351Z,3.92
2023-03-31T13:44:57.990Z,2.85
2023-03-31T13:50:04.689Z,3.08
2023-03-31T13:55:29.689Z,3.38
2023-03-31T14:00:40.577Z,2.97
2023-03-31T14:05:40.676Z,5.55
2023-03-31T14:10:40.605Z,6.82
2023-03-31T14:15:41.696Z,11.20
2023-03-31T14:20:44.066Z,15.98
2023-03-31T14:25:47.466Z,10.75
2023-03-31T14:30:52.867Z,8.95
2023-03-31T14:35:54.361Z,9.13
2023-03-31T14:40:56.339Z,5.13
2023-03-31T14:46:00.429Z,6.18
2023-03-31T14:51:00.612Z,15.20
2023-03-31T14:56:01.947Z,8.68
2023-03-31T15:01:01.807Z,16.20
2023-03-31T15:06:02.844Z,7.07
2023-03-31T15:11:12.579Z,11.43
2023-03-31T15:16:23.104Z,8.20
2023-03-31T15:21:22.661Z,17.67
2023-03-31T15:31:42.785Z,6.20
2023-03-31T15:36:41.138Z,18.88
2023-03-31T15:41:39.323Z,18.67
2023-03-31T15:46:51.318Z,8.50
2023-03-31T15:51:50.723Z,13.07
2023-03-31T15:56:50.193Z,15.30
2023-03-31T16:01:50.021Z,11.85
2023-03-31T16:06:53.291Z,30.70
2023-03-31T16:11:53.277Z,27.95
2023-03-31T16:16:53.118Z,39.92
2023-03-31T16:21:55.022Z,24.45
2023-03-31T16:26:53.255Z,37.05
2023-03-31T16:31:51.444Z,29.65
2023-03-31T16:36:50.549Z,28.48
2023-03-31T16:41:50.109Z,16.95
2023-03-31T16:46:48.339Z,17.05
2023-03-31T16:51:46.696Z,22.42
2023-03-31T16:56:45.037Z,15.48
2023-03-31T17:01:45.848Z,17.88
2023-03-31T17:06:44.175Z,14.52
2023-03-31T17:11:42.316Z,4.40
2023-03-31T17:22:01.998Z,8.35
2023-03-31T17:27:00.548Z,7.45
2023-03-31T17:31:58.808Z,21.45
2023-03-31T17:36:57.277Z,11.30
2023-03-31T17:41:57.381Z,10.70
2023-03-31T17:46:55.562Z,36.42
2023-03-31T17:51:54.106Z,48.45
2023-03-31T17:56:52.748Z,22.42
2023-03-31T18:01:52.555Z,11.07
2023-03-31T18:06:51.942Z,9.27
2023-03-31T18:11:50.414Z,9.27
2023-03-31T18:16:48.778Z,9.50
2023-03-31T18:21:48.398Z,6.30
2023-03-31T18:26:46.809Z,10.10
2023-03-31T18:31:45.041Z,5.78
2023-03-31T18:36:43.722Z,4.65
2023-03-31T18:41:45.352Z,6.43
2023-03-31T18:46:43.572Z,7.53
2023-03-31T18:51:41.843Z,4.30
2023-03-31T18:56:39.979Z,5.65
2023-03-31T19:01:40.343Z,5.15
2023-03-31T19:06:38.558Z,4.65
2023-03-31T19:11:37.759Z,4.63
2023-03-31T19:16:41.972Z,4.13
2023-03-31T19:21:42.009Z,4.10
2023-03-31T19:26:40.300Z,4.43
2023-03-31T19:31:40.667Z,3.90
2023-03-31T19:36:39.090Z,4.57
2023-03-31T19:41:38.610Z,5.30
2023-03-31T19:46:36.822Z,8.30
2023-03-31T19:51:35.174Z,11.00
2023-03-31T19:56:33.581Z,5.50
2023-03-31T20:01:33.269Z,5.15
2023-03-31T20:06:32.025Z,12.80
2023-03-31T20:11:32.206Z,7.93
2023-03-31T20:16:31.642Z,6.05
2023-03-31T20:21:32.024Z,4.30
2023-03-31T20:26:30.744Z,3.85
2023-03-31T20:31:30.733Z,4.72
2023-03-31T20:36:31.700Z,26.90
2023-03-31T20:41:31.883Z,7.65
2023-03-31T20:46:30.393Z,3.67
2023-03-31T20:51:29.581Z,4.28
2023-03-31T20:56:28.665Z,4.13
2023-03-31T21:01:29.710Z,4.00
2023-03-31T21:06:28.350Z,4.82
2023-03-31T21:11:27.477Z,4.68
2023-03-31T21:16:25.910Z,4.28
2023-03-31T21:21:25.699Z,4.80
2023-03-31T21:26:24.970Z,4.97
2023-03-31T21:31:24.473Z,4.32
2023-03-31T21:36:23.234Z,4.22
2023-03-31T21:41:24.347Z,4.50
2023-03-31T21:46:24.158Z,4.78
2023-03-31T21:51:23.008Z,4.38
2023-03-31T21:56:22.969Z,4.90
2023-03-31T22:01:21.782Z,3.97
2023-03-31T22:06:20.050Z,4.53
2023-03-31T22:11:18.234Z,3.97
2023-03-31T22:16:19.472Z,4.32
2023-03-31T22:21:18.626Z,4.40
2023-03-31T22:26:16.731Z,4.18
2023-03-31T22:31:15.386Z,4.20
2023-03-31T22:36:15.033Z,4.88
2023-03-31T22:41:13.214Z,5.28
2023-03-31T22:46:11.501Z,6.63
2023-03-31T22:51:11.948Z,4.70
2023-03-31T22:56:12.512Z,5.97
2023-03-31T23:01:14.726Z,10.55
2023-03-31T23:06:13.477Z,9.85
2023-03-31T23:11:13.829Z,7.55
2023-03-31T23:16:13.221Z,4.90
2023-03-31T23:21:11.994Z,4.38
2023-03-31T23:26:10.330Z,4.25
2023-03-31T23:31:10.915Z,3.70
2023-03-31T23:36:09.637Z,3.63
2023-03-31T23:41:07.793Z,3.58
2023-03-31T23:46:07.180Z,4.30
2023-03-31T23:51:07.739Z,4.25
2023-03-31T23:56:07.601Z,3.47
